Time;durP1;ratioP1;P1;durP2;ratioP2;P2;SDS_P1;SDS_P2;PMS_P1;PMS_P2;Temp;Humidity;BMP_temperature;BMP_pressure;BME280_temperature;BME280_humidity;BME280_pressure;Samples;Min_cycle;Max_cycle;Signal;HPM_P1;HPM_P2
2020/12/10 00:00:07;0.00;0.00;0.62;0.00;0.00;0.62;3.10;2.80;;;20.50;29.10;;;;;;2265893;61;20362;-64
2020/12/10 00:02:52;0.00;0.00;0.62;0.00;0.00;0.62;2.83;2.50;;;20.50;29.10;;;;;;2265886;61;20361;-63
2020/12/10 00:05:37;0.00;0.00;0.62;0.00;0.00;0.62;2.90;2.40;;;20.50;29.10;;;;;;2265424;61;20420;-64
2020/12/10 00:08:21;0.00;0.00;0.62;0.00;0.00;0.62;3.50;2.90;;;20.50;29.10;;;;;;2265683;61;20389;-64
2020/12/10 00:11:07;0.00;0.00;0.62;0.00;0.00;0.62;4.07;2.57;;;20.50;29.10;;;;;;2265517;61;20357;-63
2020/12/10 00:13:53;0.00;0.00;0.62;0.00;0.00;0.62;2.53;2.33;;;20.50;29.20;;;;;;2265718;61;20420;-64
2020/12/10 00:16:37;0.00;0.00;0.62;0.00;0.00;0.62;2.93;2.63;;;20.50;29.10;;;;;;2265705;61;20381;-64
2020/12/10 00:19:22;0.00;0.00;0.62;0.00;0.00;0.62;3.27;2.50;;;20.50;29.20;;;;;;2264870;61;20435;-64
2020/12/10 00:22:07;0.00;0.00;0.62;0.00;0.00;0.62;3.00;2.67;;;20.50;29.20;;;;;;2265742;61;20397;-63
2020/12/10 00:24:52;0.00;0.00;0.62;0.00;0.00;0.62;3.80;3.00;;;20.50;29.20;;;;;;2265716;61;20409;-64
2020/12/10 00:27:37;0.00;0.00;0.62;0.00;0.00;0.62;2.77;2.27;;;20.50;29.20;;;;;;2265327;61;20377;-63
2020/12/10 00:30:23;0.00;0.00;0.62;0.00;0.00;0.62;5.10;4.13;;;20.40;29.20;;;;;;2265805;61;20358;-62
2020/12/10 00:33:08;0.00;0.00;0.62;0.00;0.00;0.62;6.53;4.77;;;20.50;29.20;;;;;;2265778;61;20373;-62
2020/12/10 00:35:52;0.00;0.00;0.62;0.00;0.00;0.62;7.87;5.23;;;20.50;29.10;;;;;;2265826;61;20358;-64
2020/12/10 00:38:37;0.00;0.00;0.62;0.00;0.00;0.62;6.67;5.00;;;20.50;29.00;;;;;;2265714;61;20404;-63
2020/12/10 00:41:21;0.00;0.00;0.62;0.00;0.00;0.62;7.47;6.43;;;20.40;28.80;;;;;;2265541;61;20412;-62
2020/12/10 00:44:06;0.00;0.00;0.62;0.00;0.00;0.62;10.00;6.63;;;20.40;28.80;;;;;;2265729;61;20404;-64
2020/12/10 00:46:51;0.00;0.00;0.62;0.00;0.00;0.62;9.83;5.87;;;20.40;28.80;;;;;;2265640;61;20620;-62
2020/12/10 00:49:36;0.00;0.00;0.62;0.00;0.00;0.62;12.03;7.57;;;20.40;28.70;;;;;;2262318;61;20460;-64
2020/12/10 00:52:25;0.00;0.00;0.62;0.00;0.00;0.62;11.83;8.13;;;20.40;28.70;;;;;;2265741;61;20392;-64
2020/12/10 00:55:12;0.00;0.00;0.62;0.00;0.00;0.62;8.70;7.03;;;20.30;28.60;;;;;;2265337;61;20385;-64
2020/12/10 00:57:58;0.00;0.00;0.62;0.00;0.00;0.62;12.33;9.00;;;20.30;28.50;;;;;;2265052;61;20377;-64
2020/12/10 01:00:42;0.00;0.00;0.62;0.00;0.00;0.62;21.30;10.30;;;20.30;28.50;;;;;;2265721;61;20366;-62
2020/12/10 01:03:28;0.00;0.00;0.62;0.00;0.00;0.62;14.00;10.30;;;20.30;28.40;;;;;;2265451;61;20396;-62
2020/12/10 01:06:12;0.00;0.00;0.62;0.00;0.00;0.62;16.20;10.03;;;20.30;28.40;;;;;;2265595;61;20353;-64
2020/12/10 01:08:57;0.00;0.00;0.62;0.00;0.00;0.62;13.03;9.53;;;20.30;28.40;;;;;;2262368;61;20415;-64
2020/12/10 01:11:41;0.00;0.00;0.62;0.00;0.00;0.62;14.10;9.53;;;20.20;28.30;;;;;;2265483;61;20724;-61
2020/12/10 01:14:26;0.00;0.00;0.62;0.00;0.00;0.62;11.70;8.50;;;20.20;28.30;;;;;;2265676;61;20393;-62
2020/12/10 01:17:11;0.00;0.00;0.62;0.00;0.00;0.62;11.50;8.63;;;20.20;28.30;;;;;;2265486;61;20722;-63
2020/12/10 01:19:56;0.00;0.00;0.62;0.00;0.00;0.62;17.30;10.43;;;20.20;28.20;;;;;;2265705;61;20449;-64
2020/12/10 01:22:41;0.00;0.00;0.62;0.00;0.00;0.62;16.40;11.27;;;20.20;28.20;;;;;;2265235;61;20385;-63
2020/12/10 01:25:26;0.00;0.00;0.62;0.00;0.00;0.62;15.20;10.80;;;20.10;28.10;;;;;;2265641;61;20361;-63
2020/12/10 01:28:10;0.00;0.00;0.62;0.00;0.00;0.62;14.87;9.57;;;20.10;28.10;;;;;;2266127;61;20419;-63
2020/12/10 01:30:55;0.00;0.00;0.62;0.00;0.00;0.62;14.27;11.10;;;20.10;28.10;;;;;;2266370;61;20356;-62
2020/12/10 01:33:40;0.00;0.00;0.62;0.00;0.00;0.62;15.87;11.00;;;20.10;28.10;;;;;;2266165;61;20400;-62
2020/12/10 01:36:29;0.00;0.00;0.62;0.00;0.00;0.62;14.33;10.63;;;20.10;28.10;;;;;;2266223;61;20365;-64
2020/12/10 01:39:13;0.00;0.00;0.62;0.00;0.00;0.62;13.73;9.70;;;20.00;28.00;;;;;;2266425;61;20373;-62
2020/12/10 01:42:01;0.00;0.00;0.62;0.00;0.00;0.62;13.30;9.40;;;20.00;28.00;;;;;;2266159;61;20782;-64
2020/12/10 01:44:45;0.00;0.00;0.62;0.00;0.00;0.62;11.93;9.30;;;20.00;28.00;;;;;;2266266;61;20400;-64
2020/12/10 01:47:31;0.00;0.00;0.62;0.00;0.00;0.62;18.80;12.27;;;20.00;28.00;;;;;;2266111;61;20404;-64
2020/12/10 01:50:16;0.00;0.00;0.62;0.00;0.00;0.62;16.33;11.37;;;20.00;28.00;;;;;;2266474;61;20377;-62
2020/12/10 01:53:02;0.00;0.00;0.62;0.00;0.00;0.62;15.13;10.80;;;19.90;27.90;;;;;;2266217;61;20748;-62
2020/12/10 01:55:47;0.00;0.00;0.62;0.00;0.00;0.62;16.50;11.13;;;19.90;27.90;;;;;;2266067;61;20445;-62
2020/12/10 01:58:32;0.00;0.00;0.62;0.00;0.00;0.62;15.50;10.87;;;19.90;27.90;;;;;;2266259;61;20370;-62
2020/12/10 02:01:16;0.00;0.00;0.62;0.00;0.00;0.62;13.10;10.57;;;19.90;27.90;;;;;;2266211;61;20362;-63
2020/12/10 02:04:01;0.00;0.00;0.62;0.00;0.00;0.62;19.40;12.33;;;19.90;27.90;;;;;;2266036;61;20384;-63
2020/12/10 02:06:46;0.00;0.00;0.62;0.00;0.00;0.62;15.10;10.50;;;19.80;27.80;;;;;;2266095;61;20634;-62
2020/12/10 02:09:32;0.00;0.00;0.62;0.00;0.00;0.62;13.73;10.20;;;19.80;27.80;;;;;;2266196;61;20423;-63
2020/12/10 02:12:16;0.00;0.00;0.62;0.00;0.00;0.62;14.77;10.67;;;19.80;27.80;;;;;;2266170;61;20432;-64
2020/12/10 02:15:01;0.00;0.00;0.62;0.00;0.00;0.62;15.53;10.83;;;19.80;27.80;;;;;;2266167;61;20396;-61
2020/12/10 02:17:45;0.00;0.00;0.62;0.00;0.00;0.62;15.07;11.30;;;19.80;27.80;;;;;;2265849;61;20453;-62
2020/12/10 02:20:30;0.00;0.00;0.62;0.00;0.00;0.62;15.10;11.40;;;19.80;27.80;;;;;;2266178;61;20401;-62
2020/12/10 02:23:16;0.00;0.00;0.62;0.00;0.00;0.62;15.97;10.27;;;19.70;27.70;;;;;;2266177;61;20361;-63
2020/12/10 02:26:00;0.00;0.00;0.62;0.00;0.00;0.62;15.93;11.63;;;19.70;27.70;;;;;;2265976;61;20365;-63
2020/12/10 02:28:45;0.00;0.00;0.62;0.00;0.00;0.62;16.60;11.50;;;19.70;27.70;;;;;;2265986;61;20454;-63
2020/12/10 02:31:31;0.00;0.00;0.62;0.00;0.00;0.62;14.30;11.10;;;19.70;27.70;;;;;;2266184;61;20357;-62
2020/12/10 02:34:16;0.00;0.00;0.62;0.00;0.00;0.62;17.93;11.63;;;19.70;27.70;;;;;;2265982;61;20753;-64
2020/12/10 02:37:01;0.00;0.00;0.62;0.00;0.00;0.62;18.57;11.80;;;19.70;27.70;;;;;;2265986;61;20429;-62
2020/12/10 02:39:47;0.00;0.00;0.62;0.00;0.00;0.62;17.67;10.90;;;19.60;27.60;;;;;;2265940;61;20726;-64
2020/12/10 02:42:31;0.00;0.00;0.62;0.00;0.00;0.62;16.03;10.60;;;19.60;27.60;;;;;;2266137;61;20369;-62
2020/12/10 02:45:16;0.00;0.00;0.62;0.00;0.00;0.62;14.47;10.60;;;19.60;27.60;;;;;;2266106;61;20356;-63
2020/12/10 02:48:01;0.00;0.00;0.62;0.00;0.00;0.62;13.67;10.60;;;19.60;27.60;;;;;;2265713;61;20408;-62
2020/12/10 02:50:46;0.00;0.00;0.62;0.00;0.00;0.62;17.67;11.43;;;19.60;27.60;;;;;;2266067;61;20405;-60
2020/12/10 02:53:32;0.00;0.00;0.62;0.00;0.00;0.62;15.10;11.10;;;19.50;27.60;;;;;;2266028;61;20366;-63
2020/12/10 02:56:17;0.00;0.00;0.62;0.00;0.00;0.62;13.63;10.20;;;19.50;27.60;;;;;;2265767;61;20366;-62
2020/12/10 02:59:02;0.00;0.00;0.62;0.00;0.00;0.62;12.30;9.63;;;19.60;28.20;;;;;;2266018;61;20544;-64
2020/12/10 03:01:51;0.00;0.00;0.62;0.00;0.00;0.62;16.60;11.07;;;19.50;27.60;;;;;;2265908;61;20361;-63
2020/12/10 03:04:36;0.00;0.00;0.62;0.00;0.00;0.62;15.53;11.13;;;19.50;27.60;;;;;;2265998;61;20408;-64
2020/12/10 03:07:21;0.00;0.00;0.62;0.00;0.00;0.62;14.20;10.80;;;19.50;27.60;;;;;;2265884;61;20365;-63
2020/12/10 03:10:05;0.00;0.00;0.62;0.00;0.00;0.62;17.17;11.43;;;19.50;27.60;;;;;;2265828;61;20361;-64
2020/12/10 03:12:50;0.00;0.00;0.62;0.00;0.00;0.62;15.27;10.87;;;19.40;27.50;;;;;;2266002;61;20354;-64
2020/12/10 03:15:35;0.00;0.00;0.62;0.00;0.00;0.62;15.17;10.53;;;19.40;27.60;;;;;;2266058;61;20726;-63
2020/12/10 03:18:20;0.00;0.00;0.62;0.00;0.00;0.62;14.07;11.03;;;19.40;27.50;;;;;;2265692;61;20461;-64
2020/12/10 03:21:04;0.00;0.00;0.62;0.00;0.00;0.62;14.80;11.30;;;19.40;27.50;;;;;;2265978;61;20364;-64
2020/12/10 03:23:49;0.00;0.00;0.62;0.00;0.00;0.62;15.07;10.20;;;19.40;27.60;;;;;;2265868;61;20370;-63
2020/12/10 03:26:33;0.00;0.00;0.62;0.00;0.00;0.62;18.17;11.87;;;19.40;27.60;;;;;;2265844;61;20353;-64
2020/12/10 03:29:19;0.00;0.00;0.62;0.00;0.00;0.62;13.77;9.77;;;19.40;27.50;;;;;;2265865;61;20672;-62
2020/12/10 03:32:04;0.00;0.00;0.62;0.00;0.00;0.62;14.90;10.40;;;19.30;27.50;;;;;;2265732;61;20369;-64
2020/12/10 03:34:49;0.00;0.00;0.62;0.00;0.00;0.62;14.93;10.10;;;19.30;27.50;;;;;;2265991;61;20369;-64
2020/12/10 03:37:34;0.00;0.00;0.62;0.00;0.00;0.62;12.80;9.40;;;19.30;27.50;;;;;;2265808;61;20627;-62
2020/12/10 03:40:18;0.00;0.00;0.62;0.00;0.00;0.62;12.97;9.00;;;19.30;28.00;;;;;;2265717;61;20384;-63
2020/12/10 03:43:03;0.00;0.00;0.62;0.00;0.00;0.62;14.23;10.17;;;19.30;28.00;;;;;;2265870;61;20457;-64
2020/12/10 03:45:48;0.00;0.00;0.62;0.00;0.00;0.62;12.10;9.30;;;19.30;27.60;;;;;;2265944;61;20420;-63
2020/12/10 03:48:33;0.00;0.00;0.62;0.00;0.00;0.62;13.37;10.60;;;19.30;27.60;;;;;;2262613;61;20459;-64
2020/12/10 03:51:18;0.00;0.00;0.62;0.00;0.00;0.62;14.70;10.40;;;19.30;27.50;;;;;;2265899;61;20421;-62
2020/12/10 03:54:03;0.00;0.00;0.62;0.00;0.00;0.62;12.00;9.67;;;19.20;27.50;;;;;;2265622;61;20393;-63
2020/12/10 03:56:48;0.00;0.00;0.62;0.00;0.00;0.62;14.67;10.73;;;19.20;27.50;;;;;;2265785;61;20364;-63
2020/12/10 03:59:32;0.00;0.00;0.62;0.00;0.00;0.62;13.80;8.90;;;19.20;27.50;;;;;;2265914;61;20382;-63
2020/12/10 04:02:18;0.00;0.00;0.62;0.00;0.00;0.62;14.13;10.77;;;19.20;27.50;;;;;;2265637;61;20361;-64
2020/12/10 04:05:03;0.00;0.00;0.62;0.00;0.00;0.62;14.23;10.50;;;19.20;27.50;;;;;;2265825;61;20440;-61
2020/12/10 04:07:47;0.00;0.00;0.62;0.00;0.00;0.62;13.00;10.23;;;19.20;27.50;;;;;;2265629;61;20417;-64
2020/12/10 04:10:32;0.00;0.00;0.62;0.00;0.00;0.62;13.30;10.40;;;19.20;27.50;;;;;;2265716;61;20464;-62
2020/12/10 04:13:16;0.00;0.00;0.62;0.00;0.00;0.62;14.20;10.53;;;19.20;27.50;;;;;;2265798;61;20416;-63
2020/12/10 04:16:01;0.00;0.00;0.62;0.00;0.00;0.62;13.93;9.87;;;19.20;27.50;;;;;;2265623;61;20599;-64
2020/12/10 04:18:47;0.00;0.00;0.62;0.00;0.00;0.62;12.77;9.63;;;19.20;27.50;;;;;;2265850;61;20398;-64
2020/12/10 04:21:32;0.00;0.00;0.62;0.00;0.00;0.62;14.83;10.13;;;19.10;27.40;;;;;;2265977;61;20452;-64
2020/12/10 04:24:16;0.00;0.00;0.62;0.00;0.00;0.62;13.00;10.50;;;19.10;27.40;;;;;;2265782;61;20357;-64
2020/12/10 04:27:01;0.00;0.00;0.62;0.00;0.00;0.62;11.63;9.33;;;19.10;27.40;;;;;;2265836;61;20648;-62
2020/12/10 04:29:46;0.00;0.00;0.62;0.00;0.00;0.62;12.10;9.97;;;19.10;27.40;;;;;;2265871;61;20458;-62
2020/12/10 04:32:30;0.00;0.00;0.62;0.00;0.00;0.62;10.87;9.20;;;19.10;27.40;;;;;;2265780;61;20369;-64
2020/12/10 04:35:16;0.00;0.00;0.62;0.00;0.00;0.62;13.37;11.07;;;19.10;27.40;;;;;;2265917;61;20425;-64
2020/12/10 04:38:01;0.00;0.00;0.62;0.00;0.00;0.62;14.10;9.70;;;19.00;27.40;;;;;;2265208;61;20377;-61
2020/12/10 04:40:46;0.00;0.00;0.62;0.00;0.00;0.62;14.07;10.10;;;19.10;27.50;;;;;;2265946;61;20358;-62
2020/12/10 04:43:30;0.00;0.00;0.62;0.00;0.00;0.62;12.20;9.63;;;19.00;27.90;;;;;;2265880;61;20361;-62
2020/12/10 04:46:18;0.00;0.00;0.62;0.00;0.00;0.62;14.00;10.40;;;19.00;27.40;;;;;;2265596;61;20362;-64
2020/12/10 04:49:04;0.00;0.00;0.62;0.00;0.00;0.62;15.70;10.73;;;19.00;27.40;;;;;;2265778;61;20440;-63
2020/12/10 04:51:50;0.00;0.00;0.62;0.00;0.00;0.62;12.50;9.73;;;19.00;27.40;;;;;;2265873;61;20400;-63
2020/12/10 04:54:35;0.00;0.00;0.62;0.00;0.00;0.62;13.13;10.07;;;19.00;27.40;;;;;;2265694;61;20365;-64
2020/12/10 04:57:22;0.00;0.00;0.62;0.00;0.00;0.62;13.30;9.50;;;19.00;27.40;;;;;;2265706;61;20645;-61
2020/12/10 05:00:07;0.00;0.00;0.62;0.00;0.00;0.62;13.40;9.90;;;18.90;27.30;;;;;;2265671;61;20389;-63
2020/12/10 05:02:52;0.00;0.00;0.62;0.00;0.00;0.62;15.37;10.73;;;19.00;27.40;;;;;;2266516;61;20360;-63
2020/12/10 05:05:37;0.00;0.00;0.62;0.00;0.00;0.62;13.73;9.33;;;19.00;27.40;;;;;;2266566;61;20376;-64
2020/12/10 05:08:31;0.00;0.00;0.62;0.00;0.00;0.62;14.77;9.57;;;18.90;27.40;;;;;;2266225;61;20400;-64
2020/12/10 05:11:32;0.00;0.00;0.62;0.00;0.00;0.62;11.60;9.70;;;18.90;27.40;;;;;;2266497;61;20360;-62
2020/12/10 05:14:17;0.00;0.00;0.62;0.00;0.00;0.62;12.80;10.07;;;18.90;27.40;;;;;;2266579;61;20652;-64
2020/12/10 05:17:12;0.00;0.00;0.62;0.00;0.00;0.62;12.40;10.13;;;18.90;27.30;;;;;;2266286;61;20441;-64
2020/12/10 05:19:58;0.00;0.00;0.62;0.00;0.00;0.62;13.00;9.80;;;18.90;27.30;;;;;;2266514;61;20559;-62
2020/12/10 05:22:44;0.00;0.00;0.62;0.00;0.00;0.62;13.97;9.77;;;18.90;27.40;;;;;;2266358;61;20361;-63
2020/12/10 05:25:30;0.00;0.00;0.62;0.00;0.00;0.62;11.83;9.87;;;18.90;27.30;;;;;;2266531;61;20377;-62
2020/12/10 05:28:15;0.00;0.00;0.62;0.00;0.00;0.62;11.83;9.37;;;18.90;27.40;;;;;;2266335;61;20393;-62
2020/12/10 05:31:03;0.00;0.00;0.62;0.00;0.00;0.62;12.93;9.73;;;18.80;27.30;;;;;;2266310;61;20357;-64
2020/12/10 05:33:53;0.00;0.00;0.62;0.00;0.00;0.62;12.57;9.10;;;18.80;27.30;;;;;;2266481;61;20376;-63
2020/12/10 05:36:44;0.00;0.00;0.62;0.00;0.00;0.62;14.47;10.07;;;18.80;27.80;;;;;;2266435;61;20384;-65
2020/12/10 05:39:29;0.00;0.00;0.62;0.00;0.00;0.62;14.97;9.93;;;18.80;27.30;;;;;;2266474;61;20557;-63
2020/12/10 05:42:15;0.00;0.00;0.62;0.00;0.00;0.62;11.60;9.30;;;18.80;27.30;;;;;;2266456;61;20365;-62
2020/12/10 05:45:02;0.00;0.00;0.62;0.00;0.00;0.62;14.03;11.10;;;18.80;27.30;;;;;;2266283;61;20709;-62
2020/12/10 05:47:49;0.00;0.00;0.62;0.00;0.00;0.62;14.73;10.40;;;18.80;27.30;;;;;;2265856;61;20413;-64
2020/12/10 05:50:34;0.00;0.00;0.62;0.00;0.00;0.62;12.97;9.40;;;18.80;27.30;;;;;;2266502;61;20437;-64
2020/12/10 05:53:26;0.00;0.00;0.62;0.00;0.00;0.62;12.63;9.33;;;18.80;27.30;;;;;;2263024;61;20365;-63
2020/12/10 05:56:12;0.00;0.00;0.62;0.00;0.00;0.62;14.50;9.90;;;18.80;27.30;;;;;;2266282;61;20369;-62
2020/12/10 05:59:00;0.00;0.00;0.62;0.00;0.00;0.62;13.30;9.60;;;18.80;27.40;;;;;;2266397;61;20389;-63
2020/12/10 06:01:47;0.00;0.00;0.62;0.00;0.00;0.62;14.27;9.77;;;18.80;27.40;;;;;;2266403;61;20444;-62
2020/12/10 06:04:33;0.00;0.00;0.62;0.00;0.00;0.62;13.40;10.20;;;18.80;27.30;;;;;;2266440;61;20442;-64
2020/12/10 06:07:17;0.00;0.00;0.62;0.00;0.00;0.62;14.03;11.10;;;18.80;27.40;;;;;;2266011;61;20400;-62
2020/12/10 06:10:02;0.00;0.00;0.62;0.00;0.00;0.62;18.43;12.27;;;18.80;27.40;;;;;;2266304;61;20389;-64
2020/12/10 06:12:50;0.00;0.00;0.62;0.00;0.00;0.62;15.33;11.50;;;18.70;27.80;;;;;;2266309;61;20416;-64
2020/12/10 06:15:37;0.00;0.00;0.62;0.00;0.00;0.62;19.60;13.13;;;18.70;27.30;;;;;;2266090;61;20361;-64
2020/12/10 06:18:22;0.00;0.00;0.62;0.00;0.00;0.62;16.93;11.80;;;18.70;27.30;;;;;;2265432;61;20444;-66
2020/12/10 06:21:33;0.00;0.00;0.62;0.00;0.00;0.62;14.93;10.30;;;18.70;27.40;;;;;;2265357;61;20401;-64
2020/12/10 06:24:35;0.00;0.00;0.62;0.00;0.00;0.62;15.30;11.40;;;18.70;27.40;;;;;;2265972;61;20432;-64
2020/12/10 06:27:28;0.00;0.00;0.62;0.00;0.00;0.62;14.83;10.60;;;18.70;27.40;;;;;;2266007;61;20362;-67
2020/12/10 06:30:16;0.00;0.00;0.62;0.00;0.00;0.62;21.90;13.17;;;18.70;27.40;;;;;;2265878;61;20619;-64
2020/12/10 06:33:01;0.00;0.00;0.62;0.00;0.00;0.62;16.30;12.10;;;18.70;27.90;;;;;;2266226;61;20586;-66
2020/12/10 06:35:46;0.00;0.00;0.62;0.00;0.00;0.62;17.87;12.43;;;18.70;27.40;;;;;;2266158;61;20368;-63
2020/12/10 06:38:42;0.00;0.00;0.62;0.00;0.00;0.62;18.50;12.00;;;18.70;27.40;;;;;;2266122;61;20469;-65
2020/12/10 06:41:27;0.00;0.00;0.62;0.00;0.00;0.62;16.60;12.30;;;18.70;27.40;;;;;;2266097;61;20757;-64
2020/12/10 06:44:32;0.00;0.00;0.62;0.00;0.00;0.62;20.80;14.23;;;18.70;27.90;;;;;;2265879;61;20717;-68
2020/12/10 06:47:17;0.00;0.00;0.62;0.00;0.00;0.62;21.20;13.40;;;18.70;27.40;;;;;;2265565;61;20353;-67
2020/12/10 06:50:21;0.00;0.00;0.62;0.00;0.00;0.62;18.63;12.03;;;18.70;27.30;;;;;;2266057;61;20385;-67
2020/12/10 06:53:20;0.00;0.00;0.62;0.00;0.00;0.62;17.87;11.77;;;18.70;27.30;;;;;;2265923;61;20373;-66
2020/12/10 06:56:10;0.00;0.00;0.62;0.00;0.00;0.62;18.83;11.60;;;18.70;27.40;;;;;;2265961;61;20729;-67
2020/12/10 06:59:04;0.00;0.00;0.62;0.00;0.00;0.62;22.50;12.83;;;18.70;27.40;;;;;;2265835;61;20840;-65
2020/12/10 07:01:49;0.00;0.00;0.62;0.00;0.00;0.62;18.83;11.33;;;18.70;27.40;;;;;;2266096;61;20373;-69
2020/12/10 07:04:46;0.00;0.00;0.62;0.00;0.00;0.62;18.67;12.43;;;18.70;27.50;;;;;;2265953;61;20420;-64
2020/12/10 07:07:32;0.00;0.00;0.62;0.00;0.00;0.62;18.37;13.33;;;18.60;27.40;;;;;;2265756;61;20369;-64
2020/12/10 07:10:16;0.00;0.00;0.62;0.00;0.00;0.62;16.73;12.73;;;18.60;27.50;;;;;;2265973;61;20690;-66
2020/12/10 07:13:01;0.00;0.00;0.62;0.00;0.00;0.62;18.70;11.77;;;18.70;27.50;;;;;;2265985;61;20361;-69
2020/12/10 07:15:49;0.00;0.00;0.62;0.00;0.00;0.62;16.77;11.77;;;18.70;27.60;;;;;;2265521;61;20401;-63
2020/12/10 07:18:34;0.00;0.00;0.62;0.00;0.00;0.62;20.17;12.57;;;18.70;27.50;;;;;;2265987;61;20382;-63
2020/12/10 07:21:21;0.00;0.00;0.62;0.00;0.00;0.62;19.07;13.00;;;18.70;27.50;;;;;;2265747;61;20374;-62
2020/12/10 07:24:06;0.00;0.00;0.62;0.00;0.00;0.62;19.27;12.53;;;18.70;27.50;;;;;;2265783;61;20365;-62
2020/12/10 07:26:52;0.00;0.00;0.62;0.00;0.00;0.62;21.40;13.07;;;18.70;27.50;;;;;;2265622;61;20365;-66
2020/12/10 07:29:37;0.00;0.00;0.62;0.00;0.00;0.62;15.40;11.20;;;18.60;27.40;;;;;;2265400;61;20393;-63
2020/12/10 07:32:22;0.00;0.00;0.62;0.00;0.00;0.62;16.10;10.90;;;18.60;27.50;;;;;;2265964;61;20358;-63
2020/12/10 07:35:07;0.00;0.00;0.62;0.00;0.00;0.62;19.63;13.20;;;18.60;27.40;;;;;;2265956;61;20420;-66
2020/12/10 07:37:52;0.00;0.00;0.62;0.00;0.00;0.62;15.53;11.07;;;18.60;27.40;;;;;;2265753;61;20380;-63
2020/12/10 07:40:37;0.00;0.00;0.62;0.00;0.00;0.62;17.70;11.67;;;18.60;27.50;;;;;;2265929;61;20438;-62
2020/12/10 07:43:25;0.00;0.00;0.62;0.00;0.00;0.62;14.40;11.40;;;18.60;27.50;;;;;;2265690;61;20350;-66
2020/12/10 07:46:10;0.00;0.00;0.62;0.00;0.00;0.62;16.27;11.00;;;18.60;27.50;;;;;;2265785;61;20401;-62
2020/12/10 07:48:55;0.00;0.00;0.62;0.00;0.00;0.62;19.20;12.57;;;18.60;27.50;;;;;;2265789;61;20725;-66
2020/12/10 07:51:40;0.00;0.00;0.62;0.00;0.00;0.62;13.90;10.63;;;18.60;27.50;;;;;;2265532;61;20354;-61
2020/12/10 07:54:25;0.00;0.00;0.62;0.00;0.00;0.62;16.00;11.00;;;18.60;27.60;;;;;;2265881;61;20714;-65
2020/12/10 07:57:23;0.00;0.00;0.62;0.00;0.00;0.62;17.53;11.40;;;18.70;27.60;;;;;;2265728;61;20393;-68
2020/12/10 08:00:11;0.00;0.00;0.62;0.00;0.00;0.62;17.43;11.60;;;18.60;27.60;;;;;;2265873;61;20396;-64
2020/12/10 08:03:47;0.00;0.00;0.62;0.00;0.00;0.62;16.97;10.57;;;18.70;27.60;;;;;;2265812;61;20381;-65
2020/12/10 08:06:32;0.00;0.00;0.62;0.00;0.00;0.62;12.60;9.60;;;18.70;27.60;;;;;;2248668;61;20368;-63
2020/12/10 08:09:17;0.00;0.00;0.62;0.00;0.00;0.62;12.97;10.10;;;18.60;27.50;;;;;;2248862;61;20425;-64
2020/12/10 08:12:02;0.00;0.00;0.62;0.00;0.00;0.62;14.60;9.80;;;18.70;27.60;;;;;;2264912;61;20454;-67
2020/12/10 08:14:52;0.00;0.00;0.62;0.00;0.00;0.62;13.17;9.47;;;18.70;27.60;;;;;;2265771;61;20758;-67
2020/12/10 08:17:36;0.00;0.00;0.62;0.00;0.00;0.62;13.23;10.30;;;18.60;27.60;;;;;;2265687;61;20397;-66
2020/12/10 08:20:34;0.00;0.00;0.62;0.00;0.00;0.62;14.20;9.90;;;18.70;27.60;;;;;;2265640;61;20434;-66
2020/12/10 08:23:20;0.00;0.00;0.62;0.00;0.00;0.62;13.53;8.93;;;18.70;27.60;;;;;;2265874;61;20660;-68
2020/12/10 08:26:09;0.00;0.00;0.62;0.00;0.00;0.62;15.73;10.70;;;18.70;27.60;;;;;;2265719;61;20380;-66
2020/12/10 08:28:56;0.00;0.00;0.62;0.00;0.00;0.62;14.07;10.53;;;18.70;27.60;;;;;;2265472;61;20762;-66
2020/12/10 08:31:41;0.00;0.00;0.62;0.00;0.00;0.62;14.30;10.17;;;18.70;27.60;;;;;;2265675;61;20365;-68
2020/12/10 08:34:26;0.00;0.00;0.62;0.00;0.00;0.62;14.07;10.20;;;18.70;27.60;;;;;;2265776;61;20682;-68
2020/12/10 08:37:11;0.00;0.00;0.62;0.00;0.00;0.62;15.20;11.40;;;18.70;27.60;;;;;;2265652;61;20388;-68
2020/12/10 08:39:56;0.00;0.00;0.62;0.00;0.00;0.62;15.73;11.33;;;18.70;27.50;;;;;;2262550;61;20587;-67
2020/12/10 08:42:41;0.00;0.00;0.62;0.00;0.00;0.62;16.40;11.80;;;18.70;27.50;;;;;;2265546;61;20388;-66
2020/12/10 08:45:31;0.00;0.00;0.62;0.00;0.00;0.62;14.10;11.10;;;18.70;27.60;;;;;;2265699;61;20382;-67
2020/12/10 08:48:26;0.00;0.00;0.62;0.00;0.00;0.62;13.07;10.40;;;18.70;27.60;;;;;;2265633;61;20381;-65
2020/12/10 08:51:11;0.00;0.00;0.62;0.00;0.00;0.62;16.93;11.57;;;18.70;27.60;;;;;;2265469;61;20362;-65
2020/12/10 08:53:57;0.00;0.00;0.62;0.00;0.00;0.62;17.67;10.80;;;18.70;27.60;;;;;;2265706;61;20412;-62
2020/12/10 08:56:42;0.00;0.00;0.62;0.00;0.00;0.62;14.43;10.43;;;18.70;27.60;;;;;;2265623;61;20392;-62
2020/12/10 08:59:26;0.00;0.00;0.62;0.00;0.00;0.62;14.00;10.27;;;18.70;27.70;;;;;;2265198;61;20420;-64
2020/12/10 09:02:11;0.00;0.00;0.62;0.00;0.00;0.62;12.47;9.77;;;18.70;27.70;;;;;;2265728;61;20400;-61
2020/12/10 09:04:56;0.00;0.00;0.62;0.00;0.00;0.62;11.10;9.43;;;18.70;27.80;;;;;;2265451;61;20373;-67
2020/12/10 09:07:41;0.00;0.00;0.62;0.00;0.00;0.62;15.13;9.23;;;18.70;27.90;;;;;;2265560;61;20381;-64
2020/12/10 09:10:28;0.00;0.00;0.62;0.00;0.00;0.62;13.63;10.10;;;18.70;27.90;;;;;;2265720;61;20487;-67
2020/12/10 09:13:13;0.00;0.00;0.62;0.00;0.00;0.62;13.80;9.40;;;18.70;27.90;;;;;;2265535;61;20365;-65
2020/12/10 09:15:58;0.00;0.00;0.62;0.00;0.00;0.62;10.93;9.10;;;18.70;27.90;;;;;;2265598;61;20365;-66
2020/12/10 09:18:42;0.00;0.00;0.62;0.00;0.00;0.62;10.80;8.00;;;18.70;28.00;;;;;;2265654;61;20413;-66
2020/12/10 09:21:34;0.00;0.00;0.62;0.00;0.00;0.62;14.03;9.73;;;18.80;28.00;;;;;;2265631;61;20396;-61
2020/12/10 09:24:18;0.00;0.00;0.62;0.00;0.00;0.62;12.33;8.57;;;18.80;28.00;;;;;;2265764;61;20572;-61
2020/12/10 09:27:07;0.00;0.00;0.62;0.00;0.00;0.62;8.50;7.30;;;18.80;28.00;;;;;;2265355;61;20362;-60
2020/12/10 09:29:51;0.00;0.00;0.62;0.00;0.00;0.62;13.83;8.50;;;18.80;28.00;;;;;;2265536;61;20373;-60
2020/12/10 09:32:39;0.00;0.00;0.62;0.00;0.00;0.62;10.10;7.40;;;18.80;28.00;;;;;;2265658;61;20365;-64
2020/12/10 09:35:24;0.00;0.00;0.62;0.00;0.00;0.62;9.00;8.10;;;18.80;28.00;;;;;;2265437;61;20430;-65
2020/12/10 09:38:11;0.00;0.00;0.62;0.00;0.00;0.62;12.23;8.33;;;18.80;28.00;;;;;;2265538;61;20413;-61
2020/12/10 09:40:56;0.00;0.00;0.62;0.00;0.00;0.62;8.90;7.40;;;18.90;28.10;;;;;;2265658;61;20451;-61
2020/12/10 09:43:40;0.00;0.00;0.62;0.00;0.00;0.62;9.20;7.10;;;18.90;28.10;;;;;;2262349;61;20362;-62
2020/12/10 09:46:25;0.00;0.00;0.62;0.00;0.00;0.62;14.43;8.37;;;18.90;28.10;;;;;;2265610;61;20782;-61
2020/12/10 09:49:10;0.00;0.00;0.62;0.00;0.00;0.62;9.30;8.17;;;18.90;28.20;;;;;;2265960;61;20618;-63
2020/12/10 09:51:59;0.00;0.00;0.62;0.00;0.00;0.62;10.20;7.70;;;18.90;28.20;;;;;;2266154;61;20404;-65
2020/12/10 09:57:32;0.00;0.00;0.62;0.00;0.00;0.62;10.83;6.93;;;18.90;28.30;;;;;;2265919;61;20405;-63
2020/12/10 10:00:17;0.00;0.00;0.62;0.00;0.00;0.62;8.43;7.07;;;18.90;28.30;;;;;;2266278;61;20403;-64
2020/12/10 10:03:06;0.00;0.00;0.62;0.00;0.00;0.62;13.40;7.50;;;19.00;28.40;;;;;;2266258;61;20361;-61
2020/12/10 10:05:51;0.00;0.00;0.62;0.00;0.00;0.62;9.87;7.47;;;18.90;28.30;;;;;;2266133;61;20480;-63
2020/12/10 10:08:35;0.00;0.00;0.62;0.00;0.00;0.62;8.17;6.57;;;19.00;28.40;;;;;;2266226;61;20385;-67
2020/12/10 10:11:21;0.00;0.00;0.62;0.00;0.00;0.62;7.03;6.30;;;19.00;28.40;;;;;;2265963;61;20365;-65
2020/12/10 10:14:06;0.00;0.00;0.62;0.00;0.00;0.62;7.43;5.97;;;19.00;28.40;;;;;;2266175;61;20365;-64
2020/12/10 10:16:53;0.00;0.00;0.62;0.00;0.00;0.62;8.07;6.37;;;19.00;28.40;;;;;;2266111;61;20735;-62
2020/12/10 10:19:38;0.00;0.00;0.62;0.00;0.00;0.62;9.63;7.57;;;19.00;28.40;;;;;;2266005;61;20362;-64
2020/12/10 10:22:25;0.00;0.00;0.62;0.00;0.00;0.62;9.13;6.17;;;19.10;28.50;;;;;;2266583;61;20361;-65
2020/12/10 10:25:10;0.00;0.00;0.62;0.00;0.00;0.62;11.20;7.40;;;19.10;28.50;;;;;;2266327;61;20373;-67
2020/12/10 10:27:56;0.00;0.00;0.62;0.00;0.00;0.62;8.30;5.53;;;19.10;28.50;;;;;;2265897;61;20382;-69
2020/12/10 10:30:41;0.00;0.00;0.62;0.00;0.00;0.62;7.10;6.00;;;19.10;29.00;;;;;;2266298;61;20684;-67
2020/12/10 10:33:25;0.00;0.00;0.62;0.00;0.00;0.62;9.40;6.33;;;19.10;28.50;;;;;;2266077;61;20365;-65
2020/12/10 10:36:10;0.00;0.00;0.62;0.00;0.00;0.62;7.83;5.70;;;19.10;28.50;;;;;;2266175;61;20389;-69
2020/12/10 10:38:54;0.00;0.00;0.62;0.00;0.00;0.62;8.40;5.90;;;19.20;29.10;;;;;;2266222;61;20689;-66
2020/12/10 10:41:41;0.00;0.00;0.62;0.00;0.00;0.62;7.53;6.00;;;19.20;28.60;;;;;;2266093;61;20362;-68
2020/12/10 10:44:27;0.00;0.00;0.62;0.00;0.00;0.62;8.43;6.00;;;19.20;28.60;;;;;;2266256;61;20403;-68
2020/12/10 10:47:11;0.00;0.00;0.62;0.00;0.00;0.62;5.63;5.13;;;19.20;28.60;;;;;;2266082;61;20362;-68
2020/12/10 10:49:56;0.00;0.00;0.62;0.00;0.00;0.62;6.10;5.10;;;19.20;28.60;;;;;;2265885;61;20769;-66